createdAt,value
2019-05-25T00:00:09.738Z,30.52
2019-05-25T00:02:42.203Z,35.45
2019-05-25T00:05:14.592Z,30.70
2019-05-25T00:07:46.827Z,32.50
2019-05-25T00:10:19.050Z,29.50
2019-05-25T00:12:51.316Z,26.87
2019-05-25T00:15:23.598Z,33.15
2019-05-25T00:17:55.866Z,31.57
2019-05-25T00:20:28.052Z,29.07
2019-05-25T00:23:00.522Z,32.88
2019-05-25T00:25:32.895Z,33.85
2019-05-25T00:28:05.224Z,33.48
2019-05-25T00:30:37.472Z,34.85
2019-05-25T00:33:10.982Z,32.63
2019-05-25T00:35:43.274Z,28.95
2019-05-25T00:38:15.584Z,36.73
2019-05-25T00:40:47.787Z,35.58
2019-05-25T00:43:20.106Z,39.90
2019-05-25T00:45:52.597Z,40.65
2019-05-25T00:48:24.956Z,43.38
2019-05-25T00:50:57.173Z,38.78
2019-05-25T00:53:29.397Z,35.83
2019-05-25T00:56:01.667Z,37.35
2019-05-25T00:58:33.899Z,38.60
2019-05-25T01:01:06.813Z,45.90
2019-05-25T01:03:39.075Z,36.55
2019-05-25T01:06:11.273Z,39.05
2019-05-25T01:08:44.563Z,40.73
2019-05-25T01:11:16.791Z,38.58
2019-05-25T01:13:48.962Z,38.80
2019-05-25T01:16:22.246Z,38.02
2019-05-25T01:18:54.536Z,40.45
2019-05-25T01:21:26.835Z,42.90
2019-05-25T01:23:59.084Z,39.00
2019-05-25T01:26:31.355Z,38.73
2019-05-25T01:29:03.633Z,39.48
2019-05-25T01:31:35.907Z,40.50
2019-05-25T01:34:08.342Z,37.80
2019-05-25T01:36:40.550Z,43.08
2019-05-25T01:39:12.898Z,41.23
2019-05-25T01:41:45.172Z,39.70
2019-05-25T01:44:17.459Z,40.03
2019-05-25T01:46:49.533Z,36.25
2019-05-25T01:49:21.795Z,36.42
2019-05-25T01:51:54.004Z,44.03
2019-05-25T01:54:26.268Z,39.58
2019-05-25T01:56:58.515Z,39.83
2019-05-25T01:59:30.761Z,46.65
2019-05-25T02:02:02.964Z,44.90
2019-05-25T02:04:35.315Z,45.23
2019-05-25T02:07:07.587Z,42.03
2019-05-25T02:09:39.900Z,40.95
2019-05-25T02:12:12.098Z,38.75
2019-05-25T02:14:44.358Z,43.15
2019-05-25T02:17:16.569Z,47.53
2019-05-25T02:19:48.861Z,45.88
2019-05-25T02:22:21.075Z,44.60
2019-05-25T02:24:53.333Z,45.78
2019-05-25T02:27:27.174Z,45.73
2019-05-25T02:29:59.471Z,43.95
2019-05-25T02:32:32.108Z,37.48
2019-05-25T02:35:06.158Z,50.45
2019-05-25T02:37:38.430Z,50.30
2019-05-25T02:40:10.858Z,45.30
2019-05-25T02:42:43.150Z,45.15
2019-05-25T02:45:15.402Z,46.05
2019-05-25T02:47:47.490Z,43.40
2019-05-25T02:50:20.138Z,44.50
2019-05-25T02:52:52.388Z,44.70
2019-05-25T02:55:33.661Z,48.65
2019-05-25T02:57:58.572Z,54.23
2019-05-25T03:00:33.305Z,48.75
2019-05-25T03:03:05.898Z,49.77
2019-05-25T03:05:39.315Z,47.10
2019-05-25T03:08:11.525Z,52.17
2019-05-25T03:10:44.307Z,48.90
2019-05-25T03:13:16.786Z,50.15
2019-05-25T03:15:49.077Z,48.95
2019-05-25T03:18:21.308Z,45.20
2019-05-25T03:20:53.517Z,44.05
2019-05-25T03:23:25.726Z,43.87
2019-05-25T03:25:57.900Z,47.73
2019-05-25T03:28:30.174Z,44.75
2019-05-25T03:31:03.517Z,41.40
2019-05-25T03:33:35.769Z,45.58
2019-05-25T03:36:09.081Z,39.48
2019-05-25T03:38:42.177Z,44.13
2019-05-25T03:41:14.316Z,43.10
2019-05-25T03:43:46.514Z,42.62
2019-05-25T03:46:18.665Z,36.23
2019-05-25T03:48:50.884Z,39.10
2019-05-25T03:51:23.271Z,39.90
2019-05-25T03:53:55.597Z,40.08
2019-05-25T03:56:27.750Z,37.48
2019-05-25T03:58:59.853Z,36.65
2019-05-25T04:01:32.139Z,34.53
2019-05-25T04:04:04.517Z,36.38
2019-05-25T04:06:36.769Z,32.05
2019-05-25T04:09:09.987Z,33.30
2019-05-25T04:11:42.346Z,32.53
2019-05-25T04:14:14.622Z,33.73
2019-05-25T04:16:47.039Z,31.05
2019-05-25T04:19:19.366Z,34.80
2019-05-25T04:21:51.596Z,40.78
2019-05-25T04:24:23.868Z,36.30
2019-05-25T04:26:56.117Z,33.55
2019-05-25T04:29:29.905Z,32.60
2019-05-25T04:32:02.527Z,30.32
2019-05-25T04:34:34.710Z,29.42
2019-05-25T04:37:06.974Z,36.93
2019-05-25T04:39:39.790Z,34.75
2019-05-25T04:42:12.039Z,35.48
2019-05-25T04:44:44.294Z,40.92
2019-05-25T04:47:26.527Z,41.30
2019-05-25T04:49:52.226Z,36.20
2019-05-25T04:52:24.554Z,40.55
2019-05-25T04:54:56.797Z,40.15
2019-05-25T04:57:29.056Z,40.78
2019-05-25T05:00:01.347Z,43.05
2019-05-25T05:02:33.774Z,34.43
2019-05-25T05:05:08.048Z,32.42
2019-05-25T05:07:40.291Z,29.95
2019-05-25T05:10:12.550Z,23.90
2019-05-25T05:12:44.806Z,26.68
2019-05-25T05:15:16.918Z,25.70
2019-05-25T05:17:49.212Z,27.75
2019-05-25T05:20:21.613Z,36.00
2019-05-25T05:22:56.099Z,31.68
2019-05-25T05:25:28.491Z,37.17
2019-05-25T05:28:00.722Z,36.77
2019-05-25T05:30:34.353Z,28.42
2019-05-25T05:33:06.693Z,21.33
2019-05-25T05:35:40.537Z,34.15
2019-05-25T05:38:12.704Z,18.67
2019-05-25T05:40:45.888Z,18.35
2019-05-25T05:43:19.811Z,22.22
2019-05-25T05:45:53.608Z,25.40
2019-05-25T05:48:28.190Z,24.00
2019-05-25T05:51:01.414Z,19.62
2019-05-25T05:53:36.551Z,21.55
2019-05-25T05:56:10.551Z,21.97
2019-05-25T05:58:44.886Z,22.37
2019-05-25T06:01:17.277Z,21.20
2019-05-25T06:03:49.737Z,20.30
2019-05-25T06:06:22.198Z,24.55
2019-05-25T06:08:54.432Z,17.67
2019-05-25T06:11:26.577Z,18.07
2019-05-25T06:13:58.898Z,20.62
2019-05-25T06:16:31.224Z,18.60
2019-05-25T06:19:03.596Z,16.97
2019-05-25T06:21:35.792Z,19.55
2019-05-25T06:24:08.139Z,25.10
2019-05-25T06:26:40.353Z,20.15
2019-05-25T06:29:13.852Z,22.62
2019-05-25T06:31:46.059Z,19.05
2019-05-25T06:34:19.144Z,20.00
2019-05-25T06:36:52.578Z,18.37
2019-05-25T06:39:24.834Z,19.75
2019-05-25T06:41:58.414Z,22.05
2019-05-25T06:44:32.054Z,19.77
2019-05-25T06:47:06.472Z,20.85
2019-05-25T06:49:38.806Z,24.55
2019-05-25T06:52:11.081Z,21.17
2019-05-25T06:54:45.923Z,22.10
2019-05-25T06:59:51.755Z,21.80
2019-05-25T07:02:24.110Z,19.77
2019-05-25T07:04:56.381Z,21.37
2019-05-25T07:07:28.703Z,19.65
2019-05-25T07:10:00.902Z,21.33
2019-05-25T07:12:34.196Z,29.45
2019-05-25T07:15:08.335Z,24.85
2019-05-25T07:17:40.958Z,22.50
2019-05-25T07:20:14.189Z,21.12
2019-05-25T07:22:46.410Z,20.85
2019-05-25T07:25:20.325Z,24.15
2019-05-25T07:27:59.684Z,20.75
2019-05-25T07:30:26.846Z,24.67
2019-05-25T07:32:59.466Z,25.00
2019-05-25T07:35:31.765Z,25.00
2019-05-25T07:38:04.043Z,24.45
2019-05-25T07:40:37.784Z,24.25
2019-05-25T07:43:09.951Z,25.45
2019-05-25T07:45:42.827Z,25.70
2019-05-25T07:48:15.070Z,28.12
2019-05-25T07:50:48.413Z,24.90
2019-05-25T07:53:24.422Z,23.80
2019-05-25T07:56:01.603Z,24.10
2019-05-25T07:58:34.799Z,26.02
2019-05-25T08:01:08.043Z,21.17
2019-05-25T08:03:43.730Z,26.45
2019-05-25T08:06:16.588Z,21.42
2019-05-25T08:08:51.802Z,17.98
2019-05-25T08:11:25.831Z,18.20
2019-05-25T08:13:58.489Z,22.25
2019-05-25T08:16:32.602Z,27.50
2019-05-25T08:19:05.528Z,21.62
2019-05-25T08:24:50.172Z,21.70
2019-05-25T08:27:24.544Z,28.83
2019-05-25T08:30:01.689Z,28.47
2019-05-25T08:32:34.126Z,20.50
2019-05-25T08:35:08.001Z,24.80
2019-05-25T08:37:40.290Z,19.52
2019-05-25T08:40:14.088Z,17.67
2019-05-25T08:42:46.384Z,29.12
2019-05-25T08:45:20.304Z,15.72
2019-05-25T08:47:57.025Z,15.67
2019-05-25T08:50:37.928Z,16.48
2019-05-25T08:53:02.102Z,20.03
2019-05-25T08:55:34.362Z,13.62
2019-05-25T08:58:06.709Z,15.80
2019-05-25T09:00:39.854Z,22.22
2019-05-25T09:03:12.397Z,12.15
2019-05-25T09:05:44.750Z,12.30
2019-05-25T09:08:17.117Z,12.13
2019-05-25T09:10:49.410Z,9.33
2019-05-25T09:13:21.501Z,9.25
2019-05-25T09:15:53.768Z,10.45
2019-05-25T09:18:25.778Z,9.68
2019-05-25T09:20:57.873Z,11.88
2019-05-25T09:23:30.124Z,11.05
2019-05-25T09:26:02.523Z,16.25
2019-05-25T09:28:34.867Z,11.33
2019-05-25T09:31:06.948Z,9.88
2019-05-25T09:33:38.983Z,12.33
2019-05-25T09:36:11.139Z,12.88
2019-05-25T09:38:43.526Z,7.10
2019-05-25T09:41:19.922Z,7.10
2019-05-25T09:43:52.271Z,8.78
2019-05-25T09:46:24.672Z,9.93
2019-05-25T09:48:56.748Z,8.98
2019-05-25T09:51:28.830Z,11.40
2019-05-25T09:54:02.704Z,9.73
2019-05-25T09:56:34.801Z,12.30
2019-05-25T09:59:19.315Z,8.95
2019-05-25T10:01:42.429Z,7.58
2019-05-25T10:04:14.564Z,10.40
2019-05-25T10:06:46.701Z,13.13
2019-05-25T10:09:18.959Z,8.88
2019-05-25T10:11:51.002Z,9.55
2019-05-25T10:14:23.141Z,10.10
2019-05-25T10:16:55.234Z,11.38
2019-05-25T10:19:27.353Z,30.25
2019-05-25T10:21:59.834Z,29.55
2019-05-25T10:24:33.430Z,28.55
2019-05-25T10:27:05.460Z,84.77
2019-05-25T10:29:37.894Z,16.30
2019-05-25T10:32:10.789Z,10.78
2019-05-25T10:34:42.951Z,13.15
2019-05-25T10:37:15.158Z,17.27
2019-05-25T10:39:47.279Z,7.67
2019-05-25T10:42:20.359Z,9.50
2019-05-25T10:44:52.494Z,8.23
2019-05-25T10:47:24.514Z,7.87
2019-05-25T10:49:56.625Z,7.17
2019-05-25T10:52:28.638Z,8.40
2019-05-25T10:55:00.715Z,9.60
2019-05-25T10:57:32.777Z,11.40
2019-05-25T11:00:10.511Z,9.20
2019-05-25T11:02:42.675Z,11.30
2019-05-25T11:05:15.438Z,9.03
2019-05-25T11:07:47.531Z,9.35
2019-05-25T11:10:20.178Z,6.67
2019-05-25T11:12:52.378Z,7.08
2019-05-25T11:15:24.503Z,11.75
2019-05-25T11:17:56.581Z,7.22
2019-05-25T11:20:28.610Z,5.83
2019-05-25T11:23:00.620Z,6.53
2019-05-25T11:25:32.781Z,6.03
2019-05-25T11:28:08.181Z,8.48
2019-05-25T11:30:38.972Z,8.93
2019-05-25T11:33:11.113Z,6.47
2019-05-25T11:35:44.681Z,11.22
2019-05-25T11:38:16.880Z,6.87
2019-05-25T11:40:48.942Z,6.72
2019-05-25T11:43:21.086Z,6.25
2019-05-25T11:45:53.123Z,9.50
2019-05-25T11:48:25.139Z,10.75
2019-05-25T11:50:58.098Z,13.03
2019-05-25T11:53:30.254Z,16.97
2019-05-25T11:56:02.653Z,14.07
2019-05-25T11:58:47.033Z,18.60
2019-05-25T12:01:08.783Z,13.68
2019-05-25T12:03:41.071Z,13.35
2019-05-25T12:06:13.391Z,9.88
2019-05-25T12:08:45.538Z,11.40
2019-05-25T12:11:17.494Z,13.62
2019-05-25T12:13:49.566Z,10.35
2019-05-25T12:16:21.700Z,8.83
2019-05-25T12:18:53.694Z,13.03
2019-05-25T12:21:25.716Z,13.80
2019-05-25T12:23:57.687Z,13.72
2019-05-25T12:26:30.941Z,15.00
2019-05-25T12:29:03.024Z,17.98
2019-05-25T12:31:35.330Z,18.50
2019-05-25T12:34:07.685Z,18.80
2019-05-25T12:36:39.957Z,22.25
2019-05-25T12:39:12.324Z,24.10
2019-05-25T12:41:44.662Z,20.25
2019-05-25T12:44:17.051Z,22.95
2019-05-25T12:46:49.316Z,19.52
2019-05-25T12:49:21.453Z,22.13
2019-05-25T12:51:54.676Z,22.27
2019-05-25T12:54:27.003Z,19.35
2019-05-25T12:57:02.680Z,18.80
2019-05-25T12:59:34.212Z,18.65
2019-05-25T13:02:06.436Z,17.57
2019-05-25T13:04:38.633Z,18.40
2019-05-25T13:07:10.907Z,14.87
2019-05-25T13:09:43.180Z,15.60
2019-05-25T13:12:15.485Z,19.77
2019-05-25T13:14:47.801Z,11.83
2019-05-25T13:17:19.934Z,15.05
2019-05-25T13:19:52.170Z,13.70
2019-05-25T13:22:24.865Z,15.83
2019-05-25T13:24:57.269Z,13.48
2019-05-25T13:27:29.445Z,11.12
2019-05-25T13:30:03.182Z,9.75
2019-05-25T13:32:36.439Z,8.35
2019-05-25T13:35:08.833Z,9.80
2019-05-25T13:37:40.876Z,10.72
2019-05-25T13:40:13.031Z,9.55
2019-05-25T13:42:45.126Z,9.25
2019-05-25T13:45:17.170Z,8.38
2019-05-25T13:47:49.376Z,9.80
2019-05-25T13:50:21.527Z,10.32
2019-05-25T13:52:53.716Z,12.53
2019-05-25T13:55:27.011Z,12.37
2019-05-25T13:57:59.313Z,10.85
2019-05-25T14:00:31.471Z,9.33
2019-05-25T14:03:03.704Z,12.50
2019-05-25T14:05:35.918Z,8.75
2019-05-25T14:08:08.304Z,13.75
2019-05-25T14:10:40.962Z,14.95
2019-05-25T14:13:13.351Z,13.75
2019-05-25T14:15:45.610Z,15.95
2019-05-25T14:18:17.741Z,13.10
2019-05-25T14:20:49.917Z,9.83
2019-05-25T14:23:22.150Z,11.08
2019-05-25T14:25:54.350Z,9.58
2019-05-25T14:28:26.594Z,13.68
2019-05-25T14:30:58.966Z,8.53
2019-05-25T14:33:31.276Z,10.15
2019-05-25T14:36:03.286Z,9.23
2019-05-25T14:38:35.351Z,9.25
2019-05-25T14:41:07.534Z,7.67
2019-05-25T14:43:39.612Z,8.78
2019-05-25T14:46:26.612Z,9.55
2019-05-25T14:48:45.518Z,10.18
2019-05-25T14:51:17.612Z,8.35
2019-05-25T14:53:49.805Z,7.35
2019-05-25T14:56:22.013Z,9.10
2019-05-25T14:58:54.169Z,8.28
2019-05-25T15:01:26.257Z,8.20
2019-05-25T15:03:58.793Z,9.18
2019-05-25T15:06:30.859Z,8.78
2019-05-25T15:09:04.081Z,8.75
2019-05-25T15:11:36.223Z,13.18
2019-05-25T15:14:08.373Z,8.93
2019-05-25T15:16:40.508Z,8.23
2019-05-25T15:19:12.755Z,11.08
2019-05-25T15:21:44.929Z,8.43
2019-05-25T15:24:17.519Z,8.95
2019-05-25T15:26:49.758Z,10.85
2019-05-25T15:29:22.058Z,10.78
2019-05-25T15:31:54.241Z,8.38
2019-05-25T15:34:26.516Z,9.03
2019-05-25T15:36:58.591Z,7.62
2019-05-25T15:39:30.998Z,8.98
2019-05-25T15:42:04.023Z,9.15
2019-05-25T15:44:36.277Z,9.18
2019-05-25T15:47:08.577Z,9.88
2019-05-25T15:49:41.720Z,10.35
2019-05-25T15:52:13.965Z,7.65
2019-05-25T15:54:46.213Z,9.08
2019-05-25T15:57:18.385Z,10.90
2019-05-25T15:59:50.469Z,10.30
2019-05-25T16:02:35.672Z,10.30
2019-05-25T16:04:56.382Z,9.23
2019-05-25T16:07:31.255Z,8.38
2019-05-25T16:12:34.998Z,9.25
2019-05-25T16:15:08.784Z,10.00
2019-05-25T16:17:40.836Z,8.50
2019-05-25T16:20:15.920Z,8.10
2019-05-25T16:22:48.067Z,8.70
2019-05-25T16:25:20.214Z,10.65
2019-05-25T16:27:52.269Z,9.75
2019-05-25T16:30:24.331Z,8.53
2019-05-25T16:33:13.985Z,9.50
2019-05-25T16:35:30.776Z,10.32
2019-05-25T16:38:03.241Z,10.25
2019-05-25T16:40:35.582Z,9.50
2019-05-25T16:43:07.769Z,10.72
2019-05-25T16:45:39.821Z,10.82
2019-05-25T16:48:11.854Z,9.40
2019-05-25T16:50:44.019Z,11.30
2019-05-25T16:53:16.061Z,9.25
2019-05-25T16:55:48.367Z,10.00
2019-05-25T16:58:20.331Z,10.98
2019-05-25T17:00:52.617Z,9.93
2019-05-25T17:03:28.709Z,14.28
2019-05-25T17:05:58.530Z,9.78
2019-05-25T17:08:30.724Z,9.53
2019-05-25T17:11:02.762Z,13.30
2019-05-25T17:13:35.820Z,9.95
2019-05-25T17:16:08.072Z,12.03
2019-05-25T17:18:40.102Z,10.60
2019-05-25T17:21:12.324Z,10.65
2019-05-25T17:23:44.385Z,12.70
2019-05-25T17:26:16.630Z,14.65
2019-05-25T17:28:48.975Z,12.25
2019-05-25T17:31:21.322Z,11.93
2019-05-25T17:33:54.314Z,13.95
2019-05-25T17:36:26.675Z,14.70
2019-05-25T17:38:58.874Z,14.53
2019-05-25T17:41:31.224Z,14.07
2019-05-25T17:44:03.521Z,15.80
2019-05-25T17:46:36.689Z,17.73
2019-05-25T17:49:09.077Z,17.12
2019-05-25T17:51:41.320Z,16.82
2019-05-25T17:54:13.531Z,19.05
2019-05-25T17:56:46.914Z,19.35
2019-05-25T17:59:19.204Z,15.23
2019-05-25T18:01:51.379Z,15.90
2019-05-25T18:04:23.701Z,14.60
2019-05-25T18:06:55.980Z,16.23
2019-05-25T18:09:28.353Z,17.02
2019-05-25T18:12:01.430Z,15.98
2019-05-25T18:14:33.662Z,14.75
2019-05-25T18:17:06.053Z,16.40
2019-05-25T18:19:38.250Z,18.45
2019-05-25T18:22:10.499Z,18.55
2019-05-25T18:24:42.786Z,22.05
2019-05-25T18:27:15.055Z,21.93
2019-05-25T18:29:47.245Z,20.37
2019-05-25T18:32:19.565Z,41.60
2019-05-25T18:34:51.797Z,30.37
2019-05-25T18:37:24.151Z,23.12
2019-05-25T18:39:56.348Z,24.43
2019-05-25T18:42:30.402Z,22.52
2019-05-25T18:45:02.503Z,24.35
2019-05-25T18:47:35.051Z,26.65
2019-05-25T18:50:09.496Z,26.12
2019-05-25T18:52:41.731Z,22.60
2019-05-25T18:55:14.154Z,20.75
2019-05-25T18:57:46.586Z,22.45
2019-05-25T19:00:19.903Z,22.05
2019-05-25T19:02:52.188Z,21.42
2019-05-25T19:05:24.434Z,22.77
2019-05-25T19:07:56.793Z,21.57
2019-05-25T19:10:28.996Z,22.62
2019-05-25T19:13:01.209Z,24.10
2019-05-25T19:15:33.515Z,22.75
2019-05-25T19:18:05.854Z,20.75
2019-05-25T19:20:38.013Z,21.93
2019-05-25T19:23:10.340Z,19.67
2019-05-25T19:25:42.609Z,24.32
2019-05-25T19:28:14.861Z,20.45
2019-05-25T19:30:47.020Z,28.87
2019-05-25T19:33:19.366Z,22.35
2019-05-25T19:35:54.277Z,23.87
2019-05-25T19:38:25.678Z,20.45
2019-05-25T19:40:57.861Z,20.80
2019-05-25T19:43:31.584Z,21.62
2019-05-25T19:46:04.938Z,21.15
2019-05-25T19:48:37.078Z,24.57
2019-05-25T19:51:09.445Z,22.65
2019-05-25T19:53:41.778Z,25.45
2019-05-25T19:56:13.963Z,27.77
2019-05-25T19:58:46.213Z,23.65
2019-05-25T20:01:18.414Z,25.95
2019-05-25T20:03:50.689Z,24.52
2019-05-25T20:06:22.947Z,22.75
2019-05-25T20:08:55.211Z,23.55
2019-05-25T20:11:27.420Z,26.77
2019-05-25T20:13:59.673Z,24.02
2019-05-25T20:16:32.122Z,28.77
2019-05-25T20:19:04.407Z,28.92
2019-05-25T20:21:36.716Z,28.27
2019-05-25T20:24:08.982Z,27.15
2019-05-25T20:26:41.244Z,31.85
2019-05-25T20:29:13.899Z,27.93
2019-05-25T20:31:46.119Z,32.15
2019-05-25T20:34:18.473Z,28.52
2019-05-25T20:36:50.618Z,32.15
2019-05-25T20:39:22.753Z,35.03
2019-05-25T20:41:54.954Z,31.50
2019-05-25T20:44:27.288Z,32.85
2019-05-25T20:46:59.595Z,32.67
2019-05-25T20:49:31.835Z,32.75
2019-05-25T20:52:04.029Z,25.60
2019-05-25T20:54:36.198Z,33.30
2019-05-25T20:57:08.368Z,30.77
2019-05-25T20:59:40.483Z,33.45
2019-05-25T21:02:12.761Z,32.70
2019-05-25T21:04:45.088Z,29.35
2019-05-25T21:07:17.233Z,31.00
2019-05-25T21:09:49.579Z,32.67
2019-05-25T21:12:21.910Z,31.33
2019-05-25T21:14:54.128Z,32.93
2019-05-25T21:17:26.323Z,27.93
2019-05-25T21:19:58.509Z,28.12
2019-05-25T21:22:30.597Z,28.02
2019-05-25T21:25:05.936Z,34.65
2019-05-25T21:27:36.833Z,34.38
2019-05-25T21:30:09.921Z,25.10
2019-05-25T21:32:43.108Z,28.83
2019-05-25T21:35:15.419Z,31.68
2019-05-25T21:37:47.710Z,30.25
2019-05-25T21:40:19.825Z,27.90
2019-05-25T21:42:52.068Z,28.32
2019-05-25T21:45:24.339Z,33.33
2019-05-25T21:47:56.707Z,30.72
2019-05-25T21:50:28.849Z,31.48
2019-05-25T21:53:01.075Z,31.95
2019-05-25T21:55:33.211Z,34.05
2019-05-25T21:58:05.372Z,32.13
2019-05-25T22:00:39.338Z,30.80
2019-05-25T22:03:11.675Z,32.93
2019-05-25T22:05:44.003Z,34.73
2019-05-25T22:08:16.094Z,31.93
2019-05-25T22:10:48.463Z,31.55
2019-05-25T22:13:28.426Z,31.77
2019-05-25T22:15:54.483Z,28.50
2019-05-25T22:18:26.753Z,33.80
2019-05-25T22:20:58.991Z,32.78
2019-05-25T22:23:31.287Z,33.85
2019-05-25T22:26:03.576Z,31.80
2019-05-25T22:28:44.841Z,40.05
2019-05-25T22:31:09.686Z,37.60
2019-05-25T22:33:41.836Z,37.75
2019-05-25T22:36:13.929Z,41.23
2019-05-25T22:38:46.226Z,41.77
2019-05-25T22:41:19.958Z,38.48
2019-05-25T22:43:53.702Z,42.20
2019-05-25T22:46:26.056Z,39.18
2019-05-25T22:48:58.405Z,38.75
2019-05-25T22:51:30.699Z,38.08
2019-05-25T22:54:02.882Z,41.05
2019-05-25T22:56:35.128Z,43.92
2019-05-25T22:59:07.411Z,44.10
2019-05-25T23:01:39.751Z,45.17
2019-05-25T23:04:12.008Z,42.35
2019-05-25T23:06:57.054Z,44.65
2019-05-25T23:09:18.352Z,39.80
2019-05-25T23:11:50.593Z,44.65
2019-05-25T23:14:22.824Z,38.83
2019-05-25T23:16:55.032Z,42.75
2019-05-25T23:19:27.322Z,43.60
2019-05-25T23:21:59.603Z,42.45
2019-05-25T23:24:31.903Z,43.58
2019-05-25T23:27:04.144Z,45.48
2019-05-25T23:29:36.256Z,40.40
2019-05-25T23:32:08.379Z,43.20
2019-05-25T23:34:40.588Z,44.67
2019-05-25T23:37:15.021Z,44.33
2019-05-25T23:39:46.887Z,48.00
2019-05-25T23:42:19.176Z,49.03
2019-05-25T23:44:51.372Z,46.37
2019-05-25T23:47:23.646Z,52.17
2019-05-25T23:49:59.510Z,48.02
2019-05-25T23:52:30.204Z,48.80
2019-05-25T23:55:04.903Z,48.87
2019-05-25T23:57:36.470Z,47.10
